createdAt,value
2018-03-07T00:08:33.184Z,51.20
2018-03-07T00:11:00.688Z,51.20
2018-03-07T00:15:56.350Z,51.30
2018-03-07T00:18:24.543Z,51.40
2018-03-07T00:20:51.959Z,51.60
2018-03-07T00:28:15.868Z,51.80
2018-03-07T00:33:12.264Z,51.40
2018-03-07T00:35:39.656Z,51.50
2018-03-07T00:38:07.009Z,51.40
2018-03-07T00:45:30.939Z,51.50
2018-03-07T00:50:27.347Z,52.00
2018-03-07T00:52:54.764Z,51.80
2018-03-07T00:55:22.087Z,51.90
2018-03-07T00:57:50.716Z,52.40
2018-03-07T01:00:19.184Z,52.20
2018-03-07T01:05:15.543Z,52.10
2018-03-07T01:07:42.912Z,52.20
2018-03-07T01:10:10.980Z,52.00
2018-03-07T01:15:06.647Z,52.30
2018-03-07T01:17:33.992Z,53.30
2018-03-07T01:20:01.445Z,53.10
2018-03-07T01:24:57.063Z,52.60
2018-03-07T01:27:24.528Z,52.40
2018-03-07T01:29:51.939Z,51.90
2018-03-07T01:32:20.308Z,51.30
2018-03-07T01:37:15.936Z,52.50
2018-03-07T01:42:11.639Z,51.80
2018-03-07T01:47:07.307Z,51.70
2018-03-07T01:49:35.389Z,52.40
2018-03-07T01:52:02.771Z,52.50
2018-03-07T01:54:30.113Z,52.30
2018-03-07T01:56:58.220Z,52.00
2018-03-07T02:01:54.784Z,51.60
2018-03-07T02:04:22.252Z,51.10
2018-03-07T02:11:46.223Z,53.70
2018-03-07T02:14:13.573Z,53.70
2018-03-07T02:19:09.237Z,54.50
2018-03-07T02:21:37.323Z,53.30
2018-03-07T02:26:32.929Z,54.30
2018-03-07T02:31:28.618Z,54.40
2018-03-07T02:33:56.719Z,54.30
2018-03-07T02:36:31.112Z,54.60
2018-03-07T02:38:58.552Z,54.80
2018-03-07T02:41:25.896Z,55.10
2018-03-07T02:43:54.091Z,54.70
2018-03-07T02:46:22.289Z,54.60
2018-03-07T02:48:49.622Z,55.10
2018-03-07T02:53:45.329Z,54.60
2018-03-07T02:56:12.653Z,54.80
2018-03-07T02:58:39.981Z,54.80
2018-03-07T03:03:35.561Z,55.40
2018-03-07T03:06:02.943Z,55.70
2018-03-07T03:08:31.053Z,55.80
2018-03-07T03:10:58.481Z,55.80
2018-03-07T03:13:26.595Z,55.70
2018-03-07T03:15:54.020Z,55.80
2018-03-07T03:18:22.092Z,55.50
2018-03-07T03:20:49.452Z,55.20
2018-03-07T03:25:45.937Z,55.70
2018-03-07T03:30:42.462Z,55.70
2018-03-07T03:33:09.903Z,55.60
2018-03-07T03:35:37.245Z,55.50
2018-03-07T03:40:32.949Z,55.20
2018-03-07T03:43:00.380Z,55.00
2018-03-07T03:45:28.560Z,54.80
2018-03-07T03:47:56.685Z,54.60
2018-03-07T03:50:25.001Z,54.20
2018-03-07T03:52:53.084Z,54.00
2018-03-07T03:55:21.224Z,53.60
2018-03-07T03:57:48.558Z,53.40
2018-03-07T04:00:16.644Z,54.40
2018-03-07T04:02:44.128Z,54.30
2018-03-07T04:07:39.832Z,53.00
2018-03-07T04:10:07.928Z,52.70
2018-03-07T04:15:04.914Z,52.50
2018-03-07T04:17:32.336Z,53.90
2018-03-07T04:19:59.713Z,52.00
2018-03-07T04:22:27.852Z,54.00
2018-03-07T04:24:55.234Z,52.20
2018-03-07T04:27:23.330Z,52.30
2018-03-07T04:29:50.757Z,52.40
2018-03-07T04:32:18.844Z,52.40
2018-03-07T04:39:43.520Z,50.70
2018-03-07T04:42:10.903Z,51.40
2018-03-07T04:44:39.007Z,52.30
2018-03-07T04:47:06.556Z,51.70
2018-03-07T04:52:02.395Z,53.00
2018-03-07T04:54:29.717Z,52.70
2018-03-07T04:56:57.861Z,52.60
2018-03-07T05:01:54.631Z,51.50
2018-03-07T05:04:21.988Z,51.90
2018-03-07T05:09:18.353Z,52.50
2018-03-07T05:14:14.761Z,53.10
2018-03-07T05:16:42.147Z,53.90
2018-03-07T05:21:37.777Z,52.90
2018-03-07T05:24:05.881Z,52.00
2018-03-07T05:26:33.984Z,52.30
2018-03-07T05:31:30.418Z,52.00
2018-03-07T05:33:58.505Z,52.00
2018-03-07T05:36:25.905Z,52.30
2018-03-07T05:38:54.087Z,52.50
2018-03-07T05:41:21.468Z,52.10
2018-03-07T05:43:49.653Z,52.10
2018-03-07T05:46:17.047Z,51.70
2018-03-07T05:48:44.421Z,52.00
2018-03-07T05:51:12.972Z,52.50
2018-03-07T05:53:40.638Z,52.20
2018-03-07T05:56:08.040Z,52.20
2018-03-07T05:58:35.435Z,52.20
2018-03-07T06:01:02.776Z,52.80
2018-03-07T06:03:30.163Z,52.00
2018-03-07T06:05:57.600Z,52.60
2018-03-07T06:08:24.953Z,53.00
2018-03-07T06:10:52.296Z,53.20
2018-03-07T06:13:19.648Z,53.60
2018-03-07T06:15:46.994Z,53.60
2018-03-07T06:18:15.124Z,53.80
2018-03-07T06:23:10.788Z,53.70
2018-03-07T06:25:38.892Z,54.20
2018-03-07T06:28:06.298Z,54.90
2018-03-07T06:33:02.704Z,54.90
2018-03-07T06:37:58.480Z,55.60
2018-03-07T06:40:25.880Z,55.50
2018-03-07T06:42:53.987Z,55.30
2018-03-07T06:47:50.346Z,55.30
2018-03-07T06:52:46.041Z,55.30
2018-03-07T06:55:13.411Z,55.70
2018-03-07T07:00:09.867Z,55.30
2018-03-07T07:02:37.259Z,55.40
2018-03-07T07:05:05.344Z,55.70
2018-03-07T07:12:29.268Z,55.80
2018-03-07T07:14:56.650Z,55.50
2018-03-07T07:17:24.060Z,55.60
2018-03-07T07:19:51.390Z,55.80
2018-03-07T07:22:19.524Z,55.80
2018-03-07T07:24:46.875Z,55.80
2018-03-07T07:29:42.674Z,55.00
2018-03-07T07:32:10.777Z,54.60
2018-03-07T07:34:38.253Z,54.30
2018-03-07T07:37:06.461Z,54.50
2018-03-07T07:39:33.852Z,53.90
2018-03-07T07:42:01.225Z,53.60
2018-03-07T07:46:57.767Z,52.50
2018-03-07T07:49:25.138Z,52.00
2018-03-07T07:54:21.520Z,50.00
2018-03-07T07:56:48.872Z,49.70
2018-03-07T07:59:16.299Z,51.30
2018-03-07T08:01:43.680Z,50.60
2018-03-07T08:04:12.064Z,48.70
2018-03-07T08:06:40.212Z,48.40
2018-03-07T08:11:35.947Z,50.10
2018-03-07T08:19:00.232Z,49.60
2018-03-07T08:23:56.605Z,48.30
2018-03-07T08:33:48.796Z,46.60
2018-03-07T08:38:45.198Z,45.30
2018-03-07T08:41:12.819Z,45.20
2018-03-07T08:46:08.505Z,44.40
2018-03-07T08:48:35.856Z,44.80
2018-03-07T08:53:31.512Z,44.80
2018-03-07T08:55:59.629Z,42.60
2018-03-07T08:58:26.932Z,41.40
2018-03-07T09:00:54.299Z,39.10
2018-03-07T09:03:22.400Z,35.70
2018-03-07T09:05:49.822Z,33.50
2018-03-07T09:08:17.927Z,35.20
2018-03-07T09:10:45.310Z,36.80
2018-03-07T09:13:12.680Z,36.50
2018-03-07T09:18:09.065Z,33.40
2018-03-07T09:20:36.442Z,31.70
2018-03-07T09:23:04.577Z,32.40
2018-03-07T09:25:32.666Z,34.60
2018-03-07T09:28:00.113Z,36.00
2018-03-07T09:32:56.527Z,38.50
2018-03-07T09:35:24.690Z,38.70
2018-03-07T09:37:52.249Z,39.50
2018-03-07T09:45:16.474Z,41.40
2018-03-07T09:47:43.848Z,42.80
2018-03-07T09:50:11.243Z,42.00
2018-03-07T09:52:38.673Z,41.80
2018-03-07T09:57:35.050Z,41.10
2018-03-07T10:00:02.440Z,41.10
2018-03-07T10:02:29.834Z,40.90
2018-03-07T10:07:26.241Z,44.20
2018-03-07T10:14:50.908Z,42.70
2018-03-07T10:19:47.348Z,41.40
2018-03-07T10:27:11.269Z,39.00
2018-03-07T10:29:38.615Z,37.70
2018-03-07T10:34:35.020Z,35.30
2018-03-07T10:37:02.415Z,36.60
2018-03-07T10:39:30.536Z,35.50
2018-03-07T10:41:58.675Z,36.90
2018-03-07T10:46:54.344Z,35.50
2018-03-07T10:49:21.815Z,36.30
2018-03-07T10:51:49.178Z,35.60
2018-03-07T10:56:44.961Z,35.50
2018-03-07T10:59:13.073Z,35.20
2018-03-07T11:01:40.496Z,34.90
2018-03-07T11:04:08.078Z,33.60
2018-03-07T11:06:35.464Z,32.50
2018-03-07T11:11:31.850Z,33.10
2018-03-07T11:13:59.179Z,31.70
2018-03-07T11:16:27.264Z,31.60
2018-03-07T11:18:54.636Z,33.30
2018-03-07T11:21:22.758Z,31.10
2018-03-07T11:23:50.132Z,31.80
2018-03-07T11:26:17.482Z,31.10
2018-03-07T11:28:45.609Z,30.90
2018-03-07T11:31:12.948Z,31.10
2018-03-07T11:33:41.083Z,31.70
2018-03-07T11:38:37.589Z,32.20
2018-03-07T11:41:04.960Z,32.80
2018-03-07T11:43:32.563Z,32.60
2018-03-07T11:45:59.930Z,33.10
2018-03-07T11:48:28.153Z,33.60
2018-03-07T11:50:55.520Z,33.20
2018-03-07T11:53:23.685Z,33.20
2018-03-07T11:55:51.243Z,32.80
2018-03-07T11:58:18.624Z,33.70
2018-03-07T12:00:46.787Z,34.00
2018-03-07T12:08:10.673Z,33.50
2018-03-07T12:13:07.096Z,32.40
2018-03-07T12:18:02.736Z,30.00
2018-03-07T12:20:30.099Z,29.40
2018-03-07T12:22:57.505Z,29.80
2018-03-07T12:25:24.872Z,30.30
2018-03-07T12:30:20.667Z,28.50
2018-03-07T12:37:44.600Z,28.10
2018-03-07T12:40:11.975Z,28.90
2018-03-07T12:42:39.307Z,28.40
2018-03-07T12:45:07.551Z,28.60
2018-03-07T12:47:34.936Z,29.30
2018-03-07T12:50:02.281Z,30.00
2018-03-07T12:52:29.670Z,30.90
2018-03-07T12:54:57.018Z,31.00
2018-03-07T12:57:24.436Z,31.20
2018-03-07T13:02:21.057Z,31.40
2018-03-07T13:04:48.481Z,32.10
2018-03-07T13:07:16.616Z,32.80
2018-03-07T13:09:43.992Z,33.40
2018-03-07T13:12:11.330Z,34.70
2018-03-07T13:14:39.468Z,34.80
2018-03-07T13:17:06.860Z,35.10
2018-03-07T13:22:02.528Z,35.70
2018-03-07T13:24:30.155Z,35.80
2018-03-07T13:29:25.899Z,36.70
2018-03-07T13:34:21.577Z,37.00
2018-03-07T13:36:48.979Z,36.60
2018-03-07T13:39:16.344Z,35.60
2018-03-07T13:41:43.859Z,34.80
2018-03-07T13:46:40.513Z,33.60
2018-03-07T13:49:08.680Z,32.90
2018-03-07T13:54:04.504Z,30.00
2018-03-07T13:56:32.059Z,30.00
2018-03-07T14:01:27.815Z,31.90
2018-03-07T14:08:52.792Z,33.60
2018-03-07T14:13:56.277Z,30.50
2018-03-07T14:16:24.420Z,30.10
2018-03-07T14:21:20.572Z,29.30
2018-03-07T14:23:48.024Z,28.50
2018-03-07T14:26:15.438Z,27.20
2018-03-07T14:28:43.507Z,27.50
2018-03-07T14:31:11.699Z,28.70
2018-03-07T14:38:35.708Z,30.80
2018-03-07T14:41:03.188Z,32.10
2018-03-07T14:43:31.365Z,32.40
2018-03-07T14:45:59.477Z,31.70
2018-03-07T14:48:26.878Z,31.40
2018-03-07T14:53:22.704Z,32.10
2018-03-07T14:55:50.813Z,32.50
2018-03-07T14:58:19.044Z,33.20
2018-03-07T15:05:43.138Z,33.60
2018-03-07T15:08:10.517Z,33.60
2018-03-07T15:13:06.325Z,33.70
2018-03-07T15:15:33.723Z,33.80
2018-03-07T15:20:30.189Z,32.90
2018-03-07T15:25:25.865Z,33.60
2018-03-07T15:27:53.261Z,33.70
2018-03-07T15:30:21.376Z,33.80
2018-03-07T15:32:49.537Z,33.50
2018-03-07T15:35:16.932Z,33.90
2018-03-07T15:40:13.383Z,34.10
2018-03-07T15:42:41.497Z,34.10
2018-03-07T15:47:37.224Z,34.20
2018-03-07T15:52:33.657Z,34.70
2018-03-07T15:57:29.390Z,35.00
2018-03-07T15:59:56.771Z,35.00
2018-03-07T16:02:24.232Z,35.20
2018-03-07T16:04:51.608Z,35.40
2018-03-07T16:07:19.098Z,35.40
2018-03-07T16:12:14.797Z,35.30
2018-03-07T16:14:42.467Z,35.60
2018-03-07T16:17:16.871Z,35.70
2018-03-07T16:19:45.032Z,36.20
2018-03-07T16:24:41.388Z,39.30
2018-03-07T16:29:38.135Z,39.90
2018-03-07T16:32:05.538Z,41.30
2018-03-07T16:34:33.690Z,42.50
2018-03-07T16:37:01.101Z,43.10
2018-03-07T16:39:29.219Z,43.80
2018-03-07T16:41:56.642Z,43.10
2018-03-07T16:44:23.998Z,42.90
2018-03-07T16:46:52.128Z,43.70
2018-03-07T16:49:19.495Z,43.30
2018-03-07T16:54:15.399Z,43.00
2018-03-07T16:56:42.849Z,44.20
2018-03-07T16:59:11.218Z,43.70
2018-03-07T17:01:38.676Z,44.40
2018-03-07T17:04:06.769Z,44.60
2018-03-07T17:06:34.127Z,44.30
2018-03-07T17:09:10.328Z,44.40
2018-03-07T17:11:58.331Z,44.10
2018-03-07T17:14:30.208Z,44.00
2018-03-07T17:17:09.115Z,43.60
2018-03-07T17:19:48.840Z,43.90
2018-03-07T17:22:18.904Z,43.60
2018-03-07T17:24:52.766Z,43.30
2018-03-07T17:27:20.229Z,43.60
2018-03-07T17:29:48.640Z,43.50
2018-03-07T17:34:47.258Z,43.60
2018-03-07T17:37:15.600Z,44.00
2018-03-07T17:39:46.504Z,43.80
2018-03-07T17:42:16.656Z,43.10
2018-03-07T17:44:44.069Z,43.70
2018-03-07T17:47:12.232Z,43.80
2018-03-07T17:49:41.358Z,44.40
2018-03-07T17:52:12.067Z,44.50
2018-03-07T17:54:46.826Z,44.20
2018-03-07T17:57:20.560Z,44.60
2018-03-07T17:59:50.615Z,44.70
2018-03-07T18:02:18.935Z,44.80
2018-03-07T18:04:51.408Z,44.70
2018-03-07T18:07:20.535Z,44.80
2018-03-07T18:09:48.974Z,44.60
2018-03-07T18:12:19.709Z,44.60
2018-03-07T18:14:52.859Z,44.50
2018-03-07T18:17:27.917Z,44.50
2018-03-07T18:19:59.980Z,44.60
2018-03-07T18:22:32.325Z,44.80
2018-03-07T18:25:00.546Z,45.50
2018-03-07T18:30:04.581Z,45.90
2018-03-07T18:32:33.754Z,46.20
2018-03-07T18:35:03.060Z,46.50
2018-03-07T18:37:32.497Z,46.60
2018-03-07T18:40:00.973Z,46.90
2018-03-07T18:42:28.407Z,46.90
2018-03-07T18:45:00.624Z,46.90
2018-03-07T18:47:39.607Z,47.30
2018-03-07T18:50:14.780Z,47.20
2018-03-07T18:52:44.897Z,47.60
2018-03-07T18:55:15.944Z,47.90
2018-03-07T18:57:44.428Z,48.30
2018-03-07T19:00:12.672Z,48.40
2018-03-07T19:02:42.810Z,48.30
2018-03-07T19:05:13.441Z,48.30
2018-03-07T19:07:44.535Z,48.50
2018-03-07T19:10:14.055Z,49.20
2018-03-07T19:12:42.666Z,49.30
2018-03-07T19:15:13.601Z,49.10
2018-03-07T19:17:43.081Z,49.40
2018-03-07T19:20:14.313Z,49.50
2018-03-07T19:22:49.781Z,49.60
2018-03-07T19:25:19.974Z,49.60
2018-03-07T19:27:52.039Z,49.90
2018-03-07T19:30:19.503Z,49.50
2018-03-07T19:32:52.936Z,49.40
2018-03-07T19:35:21.346Z,49.20
2018-03-07T19:37:53.551Z,48.90
2018-03-07T19:40:21.026Z,48.50
2018-03-07T19:42:53.234Z,48.50
2018-03-07T19:45:22.183Z,48.80
2018-03-07T19:47:51.730Z,48.80
2018-03-07T19:50:22.688Z,48.90
2018-03-07T19:52:50.943Z,48.70
2018-03-07T19:55:20.921Z,48.70
2018-03-07T19:57:51.835Z,48.60
2018-03-07T20:00:21.473Z,48.20
2018-03-07T20:05:21.937Z,47.90
2018-03-07T20:07:56.027Z,48.20
2018-03-07T20:10:26.209Z,48.50
2018-03-07T20:13:00.516Z,48.90
2018-03-07T20:15:33.748Z,49.60
2018-03-07T20:18:05.072Z,50.10
2018-03-07T20:20:36.657Z,50.50
2018-03-07T20:23:04.100Z,50.30
2018-03-07T20:25:31.573Z,50.40
2018-03-07T20:28:01.447Z,50.30
2018-03-07T20:30:30.770Z,50.30
2018-03-07T20:32:58.188Z,50.60
2018-03-07T20:35:31.218Z,50.70
2018-03-07T20:38:03.256Z,50.80
2018-03-07T20:40:32.781Z,50.80
2018-03-07T20:43:02.129Z,50.50
2018-03-07T20:45:31.432Z,51.10
2018-03-07T20:48:01.312Z,51.30
2018-03-07T20:50:34.703Z,51.00
2018-03-07T20:53:06.705Z,51.00
2018-03-07T20:55:34.172Z,51.50
2018-03-07T20:58:04.198Z,51.50
2018-03-07T21:00:34.462Z,51.10
2018-03-07T21:03:04.735Z,51.10
2018-03-07T21:05:32.949Z,51.50
2018-03-07T21:08:00.347Z,52.30
2018-03-07T21:10:29.668Z,52.20
2018-03-07T21:13:00.780Z,52.50
2018-03-07T21:15:30.917Z,52.50
2018-03-07T21:18:00.449Z,52.50
2018-03-07T21:20:30.734Z,52.60
2018-03-07T21:22:58.926Z,53.20
2018-03-07T21:25:30.663Z,53.50
2018-03-07T21:28:02.263Z,53.90
2018-03-07T21:30:33.564Z,53.90
2018-03-07T21:33:02.025Z,54.30
2018-03-07T21:35:32.078Z,54.00
2018-03-07T21:37:59.594Z,54.30
2018-03-07T21:40:29.508Z,54.00
2018-03-07T21:42:57.916Z,53.70
2018-03-07T21:45:27.179Z,53.60
2018-03-07T21:47:54.721Z,53.70
2018-03-07T21:50:22.909Z,53.70
2018-03-07T21:52:55.267Z,53.60
2018-03-07T21:55:23.789Z,54.00
2018-03-07T21:57:52.954Z,53.70
2018-03-07T22:00:20.501Z,53.80
2018-03-07T22:02:49.100Z,53.80
2018-03-07T22:05:22.307Z,53.70
2018-03-07T22:10:22.754Z,54.30
2018-03-07T22:12:50.920Z,54.40
2018-03-07T22:15:22.211Z,54.50
2018-03-07T22:17:49.607Z,54.00
2018-03-07T22:20:17.120Z,53.90
2018-03-07T22:22:50.985Z,53.90
2018-03-07T22:25:21.149Z,53.90
2018-03-07T22:27:51.353Z,54.10
2018-03-07T22:30:20.378Z,54.20
2018-03-07T22:32:48.883Z,54.30
2018-03-07T22:35:17.112Z,54.30
2018-03-07T22:37:48.313Z,54.50
2018-03-07T22:40:17.662Z,54.70
2018-03-07T22:42:45.143Z,54.80
2018-03-07T22:47:40.788Z,54.80
2018-03-07T22:50:08.267Z,55.10
2018-03-07T22:52:35.654Z,55.10
2018-03-07T22:57:32.101Z,55.10
2018-03-07T22:59:59.464Z,55.30
2018-03-07T23:02:26.960Z,55.40
2018-03-07T23:04:54.344Z,55.50
2018-03-07T23:07:22.519Z,55.60
2018-03-07T23:09:50.661Z,55.70
2018-03-07T23:12:18.038Z,55.70
2018-03-07T23:14:45.381Z,55.60
2018-03-07T23:17:12.690Z,55.70
2018-03-07T23:19:40.084Z,56.00
2018-03-07T23:22:07.439Z,56.10
2018-03-07T23:24:35.520Z,55.70
2018-03-07T23:27:02.903Z,55.80
2018-03-07T23:29:31.045Z,55.80
2018-03-07T23:37:02.160Z,55.30
2018-03-07T23:39:30.299Z,55.60
2018-03-07T23:41:57.797Z,55.70
2018-03-07T23:44:25.175Z,55.70
2018-03-07T23:46:53.252Z,55.40
2018-03-07T23:49:21.419Z,55.60
2018-03-07T23:51:48.802Z,55.90
2018-03-07T23:59:12.844Z,56.60
